sensor_id;sensor_type;location;lat;lon;timestamp;P1;durP1;ratioP1;P2;durP2;ratioP2
55423;SDS011;41294;42.666;23.350;2024-03-02T00:00:18;30.37;;;22.27;;
55423;SDS011;41294;42.666;23.350;2024-03-02T00:02:46;28.87;;;22.37;;
55423;SDS011;41294;42.666;23.350;2024-03-02T00:05:14;30.03;;;22.70;;
55423;SDS011;41294;42.666;23.350;2024-03-02T00:07:45;30.43;;;21.50;;
55423;SDS011;41294;42.666;23.350;2024-03-02T00:10:15;28.47;;;21.73;;
55423;SDS011;41294;42.666;23.350;2024-03-02T00:12:45;29.70;;;21.80;;
55423;SDS011;41294;42.666;23.350;2024-03-02T00:18:12;32.97;;;21.50;;
55423;SDS011;41294;42.666;23.350;2024-03-02T00:20:39;31.00;;;22.73;;
55423;SDS011;41294;42.666;23.350;2024-03-02T00:23:06;30.00;;;22.87;;
55423;SDS011;41294;42.666;23.350;2024-03-02T00:28:16;31.20;;;22.60;;
55423;SDS011;41294;42.666;23.350;2024-03-02T00:33:19;33.57;;;23.27;;
55423;SDS011;41294;42.666;23.350;2024-03-02T00:35:46;30.60;;;23.53;;
55423;SDS011;41294;42.666;23.350;2024-03-02T00:38:12;30.90;;;22.93;;
55423;SDS011;41294;42.666;23.350;2024-03-02T00:40:40;34.47;;;23.50;;
55423;SDS011;41294;42.666;23.350;2024-03-02T00:43:07;31.90;;;24.33;;
55423;SDS011;41294;42.666;23.350;2024-03-02T00:45:54;35.73;;;22.97;;
55423;SDS011;41294;42.666;23.350;2024-03-02T00:48:19;30.80;;;23.13;;
55423;SDS011;41294;42.666;23.350;2024-03-02T00:50:52;32.27;;;22.40;;
55423;SDS011;41294;42.666;23.350;2024-03-02T00:53:17;27.33;;;20.60;;
55423;SDS011;41294;42.666;23.350;2024-03-02T00:55:49;31.17;;;21.73;;
55423;SDS011;41294;42.666;23.350;2024-03-02T00:58:15;27.80;;;19.67;;
55423;SDS011;41294;42.666;23.350;2024-03-02T01:00:40;27.43;;;20.40;;
55423;SDS011;41294;42.666;23.350;2024-03-02T01:03:06;27.73;;;20.70;;
55423;SDS011;41294;42.666;23.350;2024-03-02T01:05:33;26.13;;;20.20;;
55423;SDS011;41294;42.666;23.350;2024-03-02T01:07:59;27.77;;;19.50;;
55423;SDS011;41294;42.666;23.350;2024-03-02T01:10:24;22.43;;;17.60;;
55423;SDS011;41294;42.666;23.350;2024-03-02T01:12:51;29.57;;;19.60;;
55423;SDS011;41294;42.666;23.350;2024-03-02T01:15:16;26.63;;;18.10;;
55423;SDS011;41294;42.666;23.350;2024-03-02T01:17:42;25.17;;;18.77;;
55423;SDS011;41294;42.666;23.350;2024-03-02T01:20:08;25.00;;;18.23;;
55423;SDS011;41294;42.666;23.350;2024-03-02T01:22:34;24.63;;;18.90;;
55423;SDS011;41294;42.666;23.350;2024-03-02T01:25:01;23.67;;;18.30;;
55423;SDS011;41294;42.666;23.350;2024-03-02T01:27:27;28.27;;;20.27;;
55423;SDS011;41294;42.666;23.350;2024-03-02T01:29:53;27.00;;;19.70;;
55423;SDS011;41294;42.666;23.350;2024-03-02T01:32:19;23.67;;;17.47;;
55423;SDS011;41294;42.666;23.350;2024-03-02T01:34:45;28.33;;;20.97;;
55423;SDS011;41294;42.666;23.350;2024-03-02T01:37:11;28.83;;;20.73;;
55423;SDS011;41294;42.666;23.350;2024-03-02T01:39:36;30.23;;;21.83;;
55423;SDS011;41294;42.666;23.350;2024-03-02T01:42:02;34.00;;;23.83;;
55423;SDS011;41294;42.666;23.350;2024-03-02T01:44:27;30.33;;;21.83;;
55423;SDS011;41294;42.666;23.350;2024-03-02T01:46:53;26.93;;;19.43;;
55423;SDS011;41294;42.666;23.350;2024-03-02T01:49:18;27.00;;;18.97;;
55423;SDS011;41294;42.666;23.350;2024-03-02T01:51:44;28.93;;;20.03;;
55423;SDS011;41294;42.666;23.350;2024-03-02T01:54:10;28.83;;;20.73;;
55423;SDS011;41294;42.666;23.350;2024-03-02T01:56:35;29.97;;;20.80;;
55423;SDS011;41294;42.666;23.350;2024-03-02T01:59:01;29.90;;;21.27;;
55423;SDS011;41294;42.666;23.350;2024-03-02T02:01:27;33.47;;;24.43;;
55423;SDS011;41294;42.666;23.350;2024-03-02T02:03:52;36.90;;;25.37;;
55423;SDS011;41294;42.666;23.350;2024-03-02T02:06:18;34.60;;;24.57;;
55423;SDS011;41294;42.666;23.350;2024-03-02T02:08:43;33.73;;;24.93;;
55423;SDS011;41294;42.666;23.350;2024-03-02T02:11:10;33.93;;;25.07;;
55423;SDS011;41294;42.666;23.350;2024-03-02T02:13:35;39.40;;;26.87;;
55423;SDS011;41294;42.666;23.350;2024-03-02T02:16:05;39.53;;;27.00;;
55423;SDS011;41294;42.666;23.350;2024-03-02T02:18:32;38.43;;;27.57;;
55423;SDS011;41294;42.666;23.350;2024-03-02T02:20:57;36.50;;;27.00;;
55423;SDS011;41294;42.666;23.350;2024-03-02T02:23:23;41.33;;;27.07;;
55423;SDS011;41294;42.666;23.350;2024-03-02T02:25:48;40.93;;;28.23;;
55423;SDS011;41294;42.666;23.350;2024-03-02T02:28:14;36.63;;;25.33;;
55423;SDS011;41294;42.666;23.350;2024-03-02T02:30:39;39.67;;;27.80;;
55423;SDS011;41294;42.666;23.350;2024-03-02T02:33:05;38.83;;;27.67;;
55423;SDS011;41294;42.666;23.350;2024-03-02T02:35:30;42.17;;;27.70;;
55423;SDS011;41294;42.666;23.350;2024-03-02T02:37:56;39.07;;;27.50;;
55423;SDS011;41294;42.666;23.350;2024-03-02T02:40:23;38.50;;;27.87;;
55423;SDS011;41294;42.666;23.350;2024-03-02T02:42:49;35.70;;;25.90;;
55423;SDS011;41294;42.666;23.350;2024-03-02T02:45:14;38.20;;;26.73;;
55423;SDS011;41294;42.666;23.350;2024-03-02T02:47:41;39.47;;;27.10;;
55423;SDS011;41294;42.666;23.350;2024-03-02T02:50:07;37.50;;;27.77;;
55423;SDS011;41294;42.666;23.350;2024-03-02T02:52:36;37.57;;;26.67;;
55423;SDS011;41294;42.666;23.350;2024-03-02T02:55:04;39.60;;;26.60;;
55423;SDS011;41294;42.666;23.350;2024-03-02T02:57:34;35.93;;;25.90;;
55423;SDS011;41294;42.666;23.350;2024-03-02T03:02:39;38.10;;;26.93;;
55423;SDS011;41294;42.666;23.350;2024-03-02T03:05:11;35.37;;;25.57;;
55423;SDS011;41294;42.666;23.350;2024-03-02T03:07:39;39.00;;;27.20;;
55423;SDS011;41294;42.666;23.350;2024-03-02T03:10:05;35.47;;;24.67;;
55423;SDS011;41294;42.666;23.350;2024-03-02T03:12:33;37.13;;;26.43;;
55423;SDS011;41294;42.666;23.350;2024-03-02T03:14:59;36.13;;;26.97;;
55423;SDS011;41294;42.666;23.350;2024-03-02T03:17:25;37.67;;;26.97;;
55423;SDS011;41294;42.666;23.350;2024-03-02T03:19:51;40.47;;;27.30;;
55423;SDS011;41294;42.666;23.350;2024-03-02T03:22:16;41.50;;;29.10;;
55423;SDS011;41294;42.666;23.350;2024-03-02T03:24:42;36.07;;;26.80;;
55423;SDS011;41294;42.666;23.350;2024-03-02T03:27:08;41.00;;;29.33;;
55423;SDS011;41294;42.666;23.350;2024-03-02T03:29:36;43.43;;;28.63;;
55423;SDS011;41294;42.666;23.350;2024-03-02T03:32:02;41.03;;;28.13;;
55423;SDS011;41294;42.666;23.350;2024-03-02T03:34:28;43.10;;;29.30;;
55423;SDS011;41294;42.666;23.350;2024-03-02T03:36:54;38.93;;;27.97;;
55423;SDS011;41294;42.666;23.350;2024-03-02T03:39:19;42.23;;;29.30;;
55423;SDS011;41294;42.666;23.350;2024-03-02T03:41:45;39.27;;;28.67;;
55423;SDS011;41294;42.666;23.350;2024-03-02T03:44:10;40.83;;;27.93;;
55423;SDS011;41294;42.666;23.350;2024-03-02T03:46:36;39.67;;;27.30;;
55423;SDS011;41294;42.666;23.350;2024-03-02T03:49:02;39.57;;;27.50;;
55423;SDS011;41294;42.666;23.350;2024-03-02T03:51:28;38.47;;;27.63;;
55423;SDS011;41294;42.666;23.350;2024-03-02T03:53:55;38.63;;;26.70;;
55423;SDS011;41294;42.666;23.350;2024-03-02T03:56:21;36.03;;;26.50;;
55423;SDS011;41294;42.666;23.350;2024-03-02T03:58:46;38.43;;;27.57;;
55423;SDS011;41294;42.666;23.350;2024-03-02T04:01:11;33.87;;;24.47;;
55423;SDS011;41294;42.666;23.350;2024-03-02T04:03:37;40.37;;;27.03;;
55423;SDS011;41294;42.666;23.350;2024-03-02T04:06:03;39.80;;;27.13;;
55423;SDS011;41294;42.666;23.350;2024-03-02T04:08:29;34.67;;;26.17;;
55423;SDS011;41294;42.666;23.350;2024-03-02T04:10:54;38.43;;;27.90;;
55423;SDS011;41294;42.666;23.350;2024-03-02T04:13:20;35.30;;;25.83;;
55423;SDS011;41294;42.666;23.350;2024-03-02T04:15:45;38.40;;;27.17;;
55423;SDS011;41294;42.666;23.350;2024-03-02T04:18:11;39.03;;;26.73;;
55423;SDS011;41294;42.666;23.350;2024-03-02T04:20:37;36.43;;;26.40;;
55423;SDS011;41294;42.666;23.350;2024-03-02T04:23:02;37.47;;;25.97;;
55423;SDS011;41294;42.666;23.350;2024-03-02T04:25:28;35.23;;;25.43;;
55423;SDS011;41294;42.666;23.350;2024-03-02T04:27:53;34.80;;;25.63;;
55423;SDS011;41294;42.666;23.350;2024-03-02T04:30:19;34.97;;;24.70;;
55423;SDS011;41294;42.666;23.350;2024-03-02T04:32:44;36.67;;;25.30;;
55423;SDS011;41294;42.666;23.350;2024-03-02T04:35:14;35.00;;;24.23;;
55423;SDS011;41294;42.666;23.350;2024-03-02T04:37:39;33.77;;;24.70;;
55423;SDS011;41294;42.666;23.350;2024-03-02T04:40:05;32.70;;;24.97;;
55423;SDS011;41294;42.666;23.350;2024-03-02T04:42:34;34.47;;;24.07;;
55423;SDS011;41294;42.666;23.350;2024-03-02T04:45:00;33.50;;;24.43;;
55423;SDS011;41294;42.666;23.350;2024-03-02T04:47:25;33.40;;;24.53;;
55423;SDS011;41294;42.666;23.350;2024-03-02T04:49:51;36.20;;;25.73;;
55423;SDS011;41294;42.666;23.350;2024-03-02T04:52:16;33.43;;;24.93;;
55423;SDS011;41294;42.666;23.350;2024-03-02T04:54:42;36.00;;;25.57;;
55423;SDS011;41294;42.666;23.350;2024-03-02T04:57:26;34.97;;;25.13;;
55423;SDS011;41294;42.666;23.350;2024-03-02T04:59:52;35.23;;;25.67;;
55423;SDS011;41294;42.666;23.350;2024-03-02T05:02:17;37.87;;;25.67;;
55423;SDS011;41294;42.666;23.350;2024-03-02T05:04:43;38.33;;;26.83;;
55423;SDS011;41294;42.666;23.350;2024-03-02T05:07:08;35.47;;;26.43;;
55423;SDS011;41294;42.666;23.350;2024-03-02T05:09:34;35.67;;;26.07;;
55423;SDS011;41294;42.666;23.350;2024-03-02T05:11:59;37.33;;;27.47;;
55423;SDS011;41294;42.666;23.350;2024-03-02T05:14:54;38.80;;;27.07;;
55423;SDS011;41294;42.666;23.350;2024-03-02T05:17:22;36.47;;;27.83;;
55423;SDS011;41294;42.666;23.350;2024-03-02T05:19:48;37.37;;;27.17;;
55423;SDS011;41294;42.666;23.350;2024-03-02T05:22:13;35.53;;;27.53;;
55423;SDS011;41294;42.666;23.350;2024-03-02T05:24:38;35.23;;;24.93;;
55423;SDS011;41294;42.666;23.350;2024-03-02T05:27:04;40.20;;;27.23;;
55423;SDS011;41294;42.666;23.350;2024-03-02T05:29:31;36.83;;;27.60;;
55423;SDS011;41294;42.666;23.350;2024-03-02T05:31:56;36.53;;;27.20;;
55423;SDS011;41294;42.666;23.350;2024-03-02T05:34:22;38.93;;;27.77;;
55423;SDS011;41294;42.666;23.350;2024-03-02T05:36:47;39.60;;;26.90;;
55423;SDS011;41294;42.666;23.350;2024-03-02T05:39:13;38.23;;;27.50;;
55423;SDS011;41294;42.666;23.350;2024-03-02T05:41:38;41.10;;;26.87;;
55423;SDS011;41294;42.666;23.350;2024-03-02T05:44:04;39.53;;;26.10;;
55423;SDS011;41294;42.666;23.350;2024-03-02T05:46:30;40.07;;;27.47;;
55423;SDS011;41294;42.666;23.350;2024-03-02T05:48:55;36.63;;;27.10;;
55423;SDS011;41294;42.666;23.350;2024-03-02T05:51:21;42.00;;;27.60;;
55423;SDS011;41294;42.666;23.350;2024-03-02T05:53:46;40.73;;;28.43;;
55423;SDS011;41294;42.666;23.350;2024-03-02T05:56:12;37.20;;;25.90;;
55423;SDS011;41294;42.666;23.350;2024-03-02T05:58:38;40.30;;;27.03;;
55423;SDS011;41294;42.666;23.350;2024-03-02T06:01:22;39.73;;;28.00;;
55423;SDS011;41294;42.666;23.350;2024-03-02T06:03:53;40.57;;;28.00;;
55423;SDS011;41294;42.666;23.350;2024-03-02T06:06:19;45.20;;;30.57;;
55423;SDS011;41294;42.666;23.350;2024-03-02T06:08:46;40.13;;;27.70;;
55423;SDS011;41294;42.666;23.350;2024-03-02T06:11:11;43.83;;;29.63;;
55423;SDS011;41294;42.666;23.350;2024-03-02T06:13:36;45.40;;;29.00;;
55423;SDS011;41294;42.666;23.350;2024-03-02T06:16:02;41.30;;;27.40;;
55423;SDS011;41294;42.666;23.350;2024-03-02T06:18:28;38.87;;;27.80;;
55423;SDS011;41294;42.666;23.350;2024-03-02T06:20:53;39.57;;;26.40;;
55423;SDS011;41294;42.666;23.350;2024-03-02T06:23:19;40.47;;;28.53;;
55423;SDS011;41294;42.666;23.350;2024-03-02T06:25:45;38.10;;;26.53;;
55423;SDS011;41294;42.666;23.350;2024-03-02T06:28:10;44.93;;;28.77;;
55423;SDS011;41294;42.666;23.350;2024-03-02T06:30:36;40.67;;;26.80;;
55423;SDS011;41294;42.666;23.350;2024-03-02T06:33:01;42.83;;;28.40;;
55423;SDS011;41294;42.666;23.350;2024-03-02T06:35:28;43.07;;;28.93;;
55423;SDS011;41294;42.666;23.350;2024-03-02T06:37:54;42.53;;;28.27;;
55423;SDS011;41294;42.666;23.350;2024-03-02T06:40:19;41.83;;;28.20;;
55423;SDS011;41294;42.666;23.350;2024-03-02T06:42:47;43.50;;;28.30;;
55423;SDS011;41294;42.666;23.350;2024-03-02T06:45:12;44.27;;;28.03;;
55423;SDS011;41294;42.666;23.350;2024-03-02T06:47:38;42.53;;;28.57;;
55423;SDS011;41294;42.666;23.350;2024-03-02T06:50:03;41.30;;;28.07;;
55423;SDS011;41294;42.666;23.350;2024-03-02T06:52:29;47.13;;;30.23;;
55423;SDS011;41294;42.666;23.350;2024-03-02T06:54:54;38.60;;;26.90;;
55423;SDS011;41294;42.666;23.350;2024-03-02T06:57:20;46.07;;;29.53;;
55423;SDS011;41294;42.666;23.350;2024-03-02T06:59:46;39.73;;;27.47;;
55423;SDS011;41294;42.666;23.350;2024-03-02T07:02:12;46.00;;;29.30;;
55423;SDS011;41294;42.666;23.350;2024-03-02T07:04:37;43.23;;;27.20;;
55423;SDS011;41294;42.666;23.350;2024-03-02T07:07:03;43.40;;;28.93;;
55423;SDS011;41294;42.666;23.350;2024-03-02T07:09:28;38.17;;;27.40;;
55423;SDS011;41294;42.666;23.350;2024-03-02T07:11:54;41.87;;;27.27;;
55423;SDS011;41294;42.666;23.350;2024-03-02T07:14:19;46.37;;;29.30;;
55423;SDS011;41294;42.666;23.350;2024-03-02T07:16:45;47.67;;;30.53;;
55423;SDS011;41294;42.666;23.350;2024-03-02T07:19:10;43.90;;;31.10;;
55423;SDS011;41294;42.666;23.350;2024-03-02T07:21:36;43.53;;;30.03;;
55423;SDS011;41294;42.666;23.350;2024-03-02T07:24:02;46.17;;;30.23;;
55423;SDS011;41294;42.666;23.350;2024-03-02T07:26:31;48.20;;;32.00;;
55423;SDS011;41294;42.666;23.350;2024-03-02T07:28:57;47.83;;;31.17;;
55423;SDS011;41294;42.666;23.350;2024-03-02T07:31:22;50.53;;;29.73;;
55423;SDS011;41294;42.666;23.350;2024-03-02T07:33:48;45.33;;;30.73;;
55423;SDS011;41294;42.666;23.350;2024-03-02T07:36:13;53.70;;;31.93;;
55423;SDS011;41294;42.666;23.350;2024-03-02T07:38:39;56.07;;;33.73;;
55423;SDS011;41294;42.666;23.350;2024-03-02T07:41:05;48.03;;;31.30;;
55423;SDS011;41294;42.666;23.350;2024-03-02T07:43:32;51.80;;;31.13;;
55423;SDS011;41294;42.666;23.350;2024-03-02T07:46:01;56.60;;;34.20;;
55423;SDS011;41294;42.666;23.350;2024-03-02T07:48:28;58.50;;;33.93;;
55423;SDS011;41294;42.666;23.350;2024-03-02T07:50:53;50.27;;;31.23;;
55423;SDS011;41294;42.666;23.350;2024-03-02T07:53:19;53.83;;;32.17;;
55423;SDS011;41294;42.666;23.350;2024-03-02T07:55:44;49.23;;;30.20;;
55423;SDS011;41294;42.666;23.350;2024-03-02T07:58:10;50.17;;;30.97;;
55423;SDS011;41294;42.666;23.350;2024-03-02T08:00:38;43.47;;;28.90;;
55423;SDS011;41294;42.666;23.350;2024-03-02T08:03:04;41.40;;;27.43;;
55423;SDS011;41294;42.666;23.350;2024-03-02T08:05:29;43.33;;;28.10;;
55423;SDS011;41294;42.666;23.350;2024-03-02T08:07:55;44.37;;;28.53;;
55423;SDS011;41294;42.666;23.350;2024-03-02T08:10:21;43.17;;;26.20;;
55423;SDS011;41294;42.666;23.350;2024-03-02T08:12:46;44.47;;;28.07;;
55423;SDS011;41294;42.666;23.350;2024-03-02T08:15:12;42.03;;;25.33;;
55423;SDS011;41294;42.666;23.350;2024-03-02T08:17:40;41.37;;;26.27;;
55423;SDS011;41294;42.666;23.350;2024-03-02T08:20:13;40.50;;;27.80;;
55423;SDS011;41294;42.666;23.350;2024-03-02T08:22:39;40.00;;;25.43;;
55423;SDS011;41294;42.666;23.350;2024-03-02T08:25:05;44.10;;;29.03;;
55423;SDS011;41294;42.666;23.350;2024-03-02T08:27:31;41.23;;;26.70;;
55423;SDS011;41294;42.666;23.350;2024-03-02T08:29:57;39.67;;;27.00;;
55423;SDS011;41294;42.666;23.350;2024-03-02T08:32:22;44.37;;;27.40;;
55423;SDS011;41294;42.666;23.350;2024-03-02T08:34:48;41.30;;;27.40;;
55423;SDS011;41294;42.666;23.350;2024-03-02T08:37:13;41.13;;;26.77;;
55423;SDS011;41294;42.666;23.350;2024-03-02T08:39:39;43.27;;;26.00;;
55423;SDS011;41294;42.666;23.350;2024-03-02T08:42:04;42.93;;;27.53;;
55423;SDS011;41294;42.666;23.350;2024-03-02T08:44:30;38.70;;;25.93;;
55423;SDS011;41294;42.666;23.350;2024-03-02T08:46:56;39.87;;;26.27;;
55423;SDS011;41294;42.666;23.350;2024-03-02T08:49:21;44.27;;;28.17;;
55423;SDS011;41294;42.666;23.350;2024-03-02T08:51:47;41.20;;;27.43;;
55423;SDS011;41294;42.666;23.350;2024-03-02T08:54:19;39.87;;;27.23;;
55423;SDS011;41294;42.666;23.350;2024-03-02T08:56:46;39.90;;;26.33;;
55423;SDS011;41294;42.666;23.350;2024-03-02T08:59:11;42.63;;;27.73;;
55423;SDS011;41294;42.666;23.350;2024-03-02T09:01:37;44.20;;;26.83;;
55423;SDS011;41294;42.666;23.350;2024-03-02T09:04:06;40.97;;;26.93;;
55423;SDS011;41294;42.666;23.350;2024-03-02T09:06:33;40.80;;;26.17;;
55423;SDS011;41294;42.666;23.350;2024-03-02T09:08:59;35.00;;;24.60;;
55423;SDS011;41294;42.666;23.350;2024-03-02T09:11:25;34.53;;;24.07;;
55423;SDS011;41294;42.666;23.350;2024-03-02T09:13:51;40.80;;;27.17;;
55423;SDS011;41294;42.666;23.350;2024-03-02T09:16:17;40.67;;;26.63;;
55423;SDS011;41294;42.666;23.350;2024-03-02T09:18:42;39.83;;;26.87;;
55423;SDS011;41294;42.666;23.350;2024-03-02T09:21:07;36.77;;;24.57;;
55423;SDS011;41294;42.666;23.350;2024-03-02T09:23:33;39.70;;;26.77;;
55423;SDS011;41294;42.666;23.350;2024-03-02T09:25:59;39.40;;;26.97;;
55423;SDS011;41294;42.666;23.350;2024-03-02T09:28:24;38.43;;;25.33;;
55423;SDS011;41294;42.666;23.350;2024-03-02T09:30:50;39.20;;;25.70;;
55423;SDS011;41294;42.666;23.350;2024-03-02T09:33:15;37.83;;;25.90;;
55423;SDS011;41294;42.666;23.350;2024-03-02T09:35:41;33.67;;;22.47;;
55423;SDS011;41294;42.666;23.350;2024-03-02T09:38:06;34.57;;;23.47;;
55423;SDS011;41294;42.666;23.350;2024-03-02T09:40:32;34.43;;;23.60;;
55423;SDS011;41294;42.666;23.350;2024-03-02T09:42:57;32.67;;;22.70;;
55423;SDS011;41294;42.666;23.350;2024-03-02T09:45:24;32.80;;;23.00;;
55423;SDS011;41294;42.666;23.350;2024-03-02T09:47:50;38.43;;;26.00;;
55423;SDS011;41294;42.666;23.350;2024-03-02T09:50:16;37.63;;;26.53;;
55423;SDS011;41294;42.666;23.350;2024-03-02T09:52:43;39.67;;;26.53;;
55423;SDS011;41294;42.666;23.350;2024-03-02T09:55:13;40.57;;;26.73;;
55423;SDS011;41294;42.666;23.350;2024-03-02T09:57:40;39.20;;;26.17;;
55423;SDS011;41294;42.666;23.350;2024-03-02T10:00:07;34.57;;;24.13;;
55423;SDS011;41294;42.666;23.350;2024-03-02T10:02:33;35.83;;;24.70;;
55423;SDS011;41294;42.666;23.350;2024-03-02T10:04:59;37.80;;;24.47;;
55423;SDS011;41294;42.666;23.350;2024-03-02T10:07:24;35.10;;;24.87;;
55423;SDS011;41294;42.666;23.350;2024-03-02T10:09:50;37.33;;;25.43;;
55423;SDS011;41294;42.666;23.350;2024-03-02T10:12:17;33.60;;;23.93;;
55423;SDS011;41294;42.666;23.350;2024-03-02T10:14:43;35.30;;;24.03;;
55423;SDS011;41294;42.666;23.350;2024-03-02T10:17:13;35.27;;;23.83;;
55423;SDS011;41294;42.666;23.350;2024-03-02T10:19:40;33.83;;;22.83;;
55423;SDS011;41294;42.666;23.350;2024-03-02T10:22:07;33.07;;;23.70;;
55423;SDS011;41294;42.666;23.350;2024-03-02T10:24:37;31.97;;;22.83;;
55423;SDS011;41294;42.666;23.350;2024-03-02T10:27:07;32.53;;;22.33;;
55423;SDS011;41294;42.666;23.350;2024-03-02T10:29:36;32.70;;;22.03;;
55423;SDS011;41294;42.666;23.350;2024-03-02T10:32:03;35.07;;;23.77;;
55423;SDS011;41294;42.666;23.350;2024-03-02T10:34:31;33.20;;;22.10;;
55423;SDS011;41294;42.666;23.350;2024-03-02T10:36:57;38.10;;;24.57;;
55423;SDS011;41294;42.666;23.350;2024-03-02T10:39:23;32.70;;;22.83;;
55423;SDS011;41294;42.666;23.350;2024-03-02T10:41:49;34.03;;;22.37;;
55423;SDS011;41294;42.666;23.350;2024-03-02T10:44:18;33.80;;;23.13;;
55423;SDS011;41294;42.666;23.350;2024-03-02T10:46:44;32.37;;;21.67;;
55423;SDS011;41294;42.666;23.350;2024-03-02T10:49:12;34.20;;;24.03;;
55423;SDS011;41294;42.666;23.350;2024-03-02T10:51:37;33.57;;;23.17;;
55423;SDS011;41294;42.666;23.350;2024-03-02T10:54:03;30.57;;;22.07;;
55423;SDS011;41294;42.666;23.350;2024-03-02T11:02:12;29.27;;;21.17;;
55423;SDS011;41294;42.666;23.350;2024-03-02T11:04:40;28.83;;;20.87;;
55423;SDS011;41294;42.666;23.350;2024-03-02T11:07:07;29.87;;;20.53;;
55423;SDS011;41294;42.666;23.350;2024-03-02T11:09:35;26.97;;;19.53;;
55423;SDS011;41294;42.666;23.350;2024-03-02T11:14:48;27.70;;;19.63;;
55423;SDS011;41294;42.666;23.350;2024-03-02T11:17:15;29.60;;;20.17;;
55423;SDS011;41294;42.666;23.350;2024-03-02T11:19:42;28.77;;;20.43;;
55423;SDS011;41294;42.666;23.350;2024-03-02T11:22:09;29.17;;;20.43;;
55423;SDS011;41294;42.666;23.350;2024-03-02T11:24:35;29.30;;;21.30;;
55423;SDS011;41294;42.666;23.350;2024-03-02T11:27:02;29.13;;;20.80;;
55423;SDS011;41294;42.666;23.350;2024-03-02T11:32:04;26.47;;;19.60;;
55423;SDS011;41294;42.666;23.350;2024-03-02T11:34:32;30.33;;;20.40;;
55423;SDS011;41294;42.666;23.350;2024-03-02T11:36:59;29.63;;;21.00;;
55423;SDS011;41294;42.666;23.350;2024-03-02T11:39:27;30.73;;;20.97;;
55423;SDS011;41294;42.666;23.350;2024-03-02T11:41:53;29.87;;;22.03;;
55423;SDS011;41294;42.666;23.350;2024-03-02T11:44:20;37.27;;;26.67;;
55423;SDS011;41294;42.666;23.350;2024-03-02T11:47:07;44.53;;;29.50;;
55423;SDS011;41294;42.666;23.350;2024-03-02T11:49:36;35.33;;;24.10;;
55423;SDS011;41294;42.666;23.350;2024-03-02T11:52:07;31.73;;;22.87;;
55423;SDS011;41294;42.666;23.350;2024-03-02T11:54:34;31.03;;;22.10;;
55423;SDS011;41294;42.666;23.350;2024-03-02T11:57:04;29.30;;;23.07;;
55423;SDS011;41294;42.666;23.350;2024-03-02T11:59:31;31.97;;;23.00;;
55423;SDS011;41294;42.666;23.350;2024-03-02T12:01:57;28.10;;;21.93;;
55423;SDS011;41294;42.666;23.350;2024-03-02T12:04:24;24.50;;;17.93;;
55423;SDS011;41294;42.666;23.350;2024-03-02T12:06:56;25.87;;;18.23;;
55423;SDS011;41294;42.666;23.350;2024-03-02T12:09:29;25.10;;;19.17;;
55423;SDS011;41294;42.666;23.350;2024-03-02T12:12:08;22.57;;;17.13;;
55423;SDS011;41294;42.666;23.350;2024-03-02T12:14:38;24.63;;;17.63;;
55423;SDS011;41294;42.666;23.350;2024-03-02T12:17:04;25.97;;;18.03;;
55423;SDS011;41294;42.666;23.350;2024-03-02T12:19:31;21.53;;;15.87;;
55423;SDS011;41294;42.666;23.350;2024-03-02T12:21:57;22.90;;;17.43;;
55423;SDS011;41294;42.666;23.350;2024-03-02T12:24:24;23.27;;;17.07;;
55423;SDS011;41294;42.666;23.350;2024-03-02T12:26:51;23.10;;;16.20;;
55423;SDS011;41294;42.666;23.350;2024-03-02T12:29:21;23.43;;;17.57;;
55423;SDS011;41294;42.666;23.350;2024-03-02T12:31:48;23.17;;;16.93;;
55423;SDS011;41294;42.666;23.350;2024-03-02T12:34:14;21.10;;;16.67;;
55423;SDS011;41294;42.666;23.350;2024-03-02T12:36:40;22.27;;;16.67;;
55423;SDS011;41294;42.666;23.350;2024-03-02T12:39:09;22.50;;;17.10;;
55423;SDS011;41294;42.666;23.350;2024-03-02T12:41:38;23.80;;;16.37;;
55423;SDS011;41294;42.666;23.350;2024-03-02T12:44:04;22.00;;;16.60;;
55423;SDS011;41294;42.666;23.350;2024-03-02T12:46:31;20.83;;;16.00;;
55423;SDS011;41294;42.666;23.350;2024-03-02T12:48:57;21.20;;;16.80;;
55423;SDS011;41294;42.666;23.350;2024-03-02T12:51:24;20.37;;;15.90;;
55423;SDS011;41294;42.666;23.350;2024-03-02T12:53:54;21.83;;;16.60;;
55423;SDS011;41294;42.666;23.350;2024-03-02T12:56:20;20.80;;;15.33;;
55423;SDS011;41294;42.666;23.350;2024-03-02T12:58:46;23.13;;;17.73;;
55423;SDS011;41294;42.666;23.350;2024-03-02T13:01:13;21.90;;;17.30;;
55423;SDS011;41294;42.666;23.350;2024-03-02T13:03:40;21.10;;;16.60;;
55423;SDS011;41294;42.666;23.350;2024-03-02T13:06:06;22.90;;;17.23;;
55423;SDS011;41294;42.666;23.350;2024-03-02T13:08:35;21.20;;;16.67;;
55423;SDS011;41294;42.666;23.350;2024-03-02T13:11:01;20.77;;;16.30;;
55423;SDS011;41294;42.666;23.350;2024-03-02T13:13:30;21.27;;;16.30;;
55423;SDS011;41294;42.666;23.350;2024-03-02T13:15:56;20.23;;;16.00;;
55423;SDS011;41294;42.666;23.350;2024-03-02T13:18:21;20.07;;;15.47;;
55423;SDS011;41294;42.666;23.350;2024-03-02T13:20:47;19.30;;;15.50;;
55423;SDS011;41294;42.666;23.350;2024-03-02T13:23:13;21.60;;;15.83;;
55423;SDS011;41294;42.666;23.350;2024-03-02T13:25:39;19.87;;;16.27;;
55423;SDS011;41294;42.666;23.350;2024-03-02T13:28:05;18.97;;;15.43;;
55423;SDS011;41294;42.666;23.350;2024-03-02T13:30:31;20.93;;;15.83;;
55423;SDS011;41294;42.666;23.350;2024-03-02T13:32:57;18.87;;;14.50;;
55423;SDS011;41294;42.666;23.350;2024-03-02T13:35:23;18.83;;;15.70;;
55423;SDS011;41294;42.666;23.350;2024-03-02T13:37:48;19.73;;;15.07;;
55423;SDS011;41294;42.666;23.350;2024-03-02T13:40:15;19.33;;;15.77;;
55423;SDS011;41294;42.666;23.350;2024-03-02T13:42:45;19.93;;;15.63;;
55423;SDS011;41294;42.666;23.350;2024-03-02T13:45:11;20.10;;;15.90;;
55423;SDS011;41294;42.666;23.350;2024-03-02T13:47:38;19.50;;;15.57;;
55423;SDS011;41294;42.666;23.350;2024-03-02T13:50:03;19.57;;;15.93;;
55423;SDS011;41294;42.666;23.350;2024-03-02T13:52:32;19.83;;;16.43;;
55423;SDS011;41294;42.666;23.350;2024-03-02T13:54:57;21.20;;;16.67;;
55423;SDS011;41294;42.666;23.350;2024-03-02T13:57:23;19.93;;;16.47;;
55423;SDS011;41294;42.666;23.350;2024-03-02T13:59:48;20.67;;;17.40;;
55423;SDS011;41294;42.666;23.350;2024-03-02T14:02:14;20.57;;;16.37;;
55423;SDS011;41294;42.666;23.350;2024-03-02T14:04:40;20.73;;;16.87;;
55423;SDS011;41294;42.666;23.350;2024-03-02T14:07:05;20.57;;;16.67;;
55423;SDS011;41294;42.666;23.350;2024-03-02T14:09:36;23.63;;;18.80;;
55423;SDS011;41294;42.666;23.350;2024-03-02T14:12:02;22.53;;;17.10;;
55423;SDS011;41294;42.666;23.350;2024-03-02T14:14:28;25.27;;;17.63;;
55423;SDS011;41294;42.666;23.350;2024-03-02T14:16:54;23.17;;;17.63;;
55423;SDS011;41294;42.666;23.350;2024-03-02T14:19:21;23.60;;;18.33;;
55423;SDS011;41294;42.666;23.350;2024-03-02T14:21:47;20.97;;;17.80;;
55423;SDS011;41294;42.666;23.350;2024-03-02T14:24:13;21.07;;;17.63;;
55423;SDS011;41294;42.666;23.350;2024-03-02T14:26:39;22.70;;;18.47;;